createdAt,value
2023-05-21T05:16:40.075Z,24.57
2023-05-21T05:17:40.052Z,24.69
2023-05-21T05:18:39.978Z,24.64
2023-05-21T05:19:39.966Z,24.81
2023-05-21T05:20:39.959Z,24.64
2023-05-21T05:21:39.958Z,24.62
2023-05-21T05:22:39.936Z,24.48
2023-05-21T05:23:39.929Z,24.71
2023-05-21T05:24:39.916Z,24.78
2023-05-21T05:25:39.935Z,24.65
2023-05-21T05:26:39.900Z,24.72
2023-05-21T05:27:39.883Z,24.72
2023-05-21T05:28:39.877Z,24.64
2023-05-21T05:29:39.867Z,24.64
2023-05-21T05:30:39.885Z,24.65
2023-05-21T05:31:39.861Z,24.57
2023-05-21T05:32:39.877Z,24.30
2023-05-21T05:33:39.827Z,25.12
2023-05-21T05:34:39.821Z,24.77
2023-05-21T05:35:39.811Z,25.04
2023-05-21T05:36:39.796Z,24.73
2023-05-21T05:37:39.787Z,25.10
2023-05-21T05:38:39.774Z,24.78
2023-05-21T05:39:39.768Z,24.30
2023-05-21T05:40:39.753Z,24.61
2023-05-21T05:41:39.741Z,25.14
2023-05-21T05:42:39.731Z,24.69
2023-05-21T05:43:39.744Z,24.65
2023-05-21T05:44:39.711Z,25.56
2023-05-21T05:45:39.824Z,24.73
2023-05-21T05:46:39.868Z,25.48
2023-05-21T05:47:39.714Z,25.04
2023-05-21T05:48:39.716Z,25.04
2023-05-21T05:49:39.665Z,25.07
2023-05-21T05:50:39.651Z,25.12
2023-05-21T05:51:39.634Z,25.17
2023-05-21T05:52:39.628Z,24.71
2023-05-21T05:53:39.609Z,25.46
2023-05-21T05:54:39.621Z,25.23
2023-05-21T05:55:39.678Z,25.04
2023-05-21T05:56:39.584Z,25.17
2023-05-21T05:57:39.575Z,25.04
2023-05-21T05:58:39.558Z,25.22
2023-05-21T05:59:39.546Z,25.04
2023-05-21T06:00:39.537Z,25.10
2023-05-21T06:01:39.528Z,25.15
2023-05-21T06:02:39.648Z,25.04
2023-05-21T06:03:39.608Z,25.12
2023-05-21T06:04:39.553Z,25.05
2023-05-21T06:05:39.833Z,24.76
2023-05-21T06:06:39.478Z,25.12
2023-05-21T06:07:39.476Z,24.30
2023-05-21T06:08:39.452Z,25.02
2023-05-21T06:09:39.440Z,25.14
2023-05-21T06:10:39.432Z,24.71
2023-05-21T06:11:39.426Z,24.61
2023-05-21T06:12:39.415Z,25.23
2023-05-21T06:13:39.400Z,25.20
2023-05-21T06:14:39.403Z,25.09
2023-05-21T06:15:39.402Z,25.04
2023-05-21T06:16:39.440Z,24.72
2023-05-21T06:17:39.383Z,24.22
2023-05-21T06:18:39.347Z,24.72
2023-05-21T06:19:39.345Z,25.14
2023-05-21T06:20:39.352Z,24.69
2023-05-21T06:21:39.327Z,24.94
2023-05-21T06:22:39.312Z,24.72
2023-05-21T06:23:39.301Z,24.62
2023-05-21T06:24:39.311Z,25.14
2023-05-21T06:25:39.437Z,25.05
2023-05-21T06:26:39.263Z,24.62
2023-05-21T06:27:39.271Z,24.84
2023-05-21T06:28:39.241Z,24.76
2023-05-21T06:29:39.231Z,25.07
2023-05-21T06:30:39.219Z,25.19
2023-05-21T06:31:39.214Z,25.09
2023-05-21T06:32:39.303Z,24.85
2023-05-21T06:33:39.275Z,25.07
2023-05-21T06:34:39.182Z,25.01
2023-05-21T06:35:39.294Z,24.70
2023-05-21T06:36:39.200Z,24.68
2023-05-21T06:37:39.155Z,24.62
2023-05-21T06:38:39.156Z,24.73
2023-05-21T06:39:39.130Z,24.73
2023-05-21T06:40:39.117Z,25.05
2023-05-21T06:41:39.104Z,24.56
2023-05-21T06:42:39.102Z,25.04
2023-05-21T06:43:39.084Z,25.02
2023-05-21T06:44:39.079Z,24.62
2023-05-21T06:45:39.225Z,24.62
2023-05-21T06:46:39.076Z,25.04
2023-05-21T06:47:39.076Z,25.04
2023-05-21T06:48:39.034Z,24.62
2023-05-21T06:49:39.024Z,24.72
2023-05-21T06:50:39.019Z,25.07
2023-05-21T06:51:39.000Z,25.14
2023-05-21T06:52:39.014Z,25.20
2023-05-21T06:53:38.980Z,24.81
2023-05-21T06:54:38.974Z,25.14
2023-05-21T06:55:39.134Z,25.12
2023-05-21T06:56:38.948Z,24.65
2023-05-21T06:57:38.937Z,24.64
2023-05-21T06:58:38.934Z,24.72
2023-05-21T06:59:38.923Z,24.72
2023-05-21T07:00:38.904Z,24.72
2023-05-21T07:01:39.070Z,25.00
2023-05-21T07:02:39.008Z,24.76
2023-05-21T07:03:38.908Z,24.97
2023-05-21T07:04:38.879Z,24.76
2023-05-21T07:05:39.283Z,24.81
2023-05-21T07:06:38.842Z,24.76
2023-05-21T07:07:38.857Z,24.77
2023-05-21T07:08:38.850Z,24.72
2023-05-21T07:09:38.812Z,24.73
2023-05-21T07:10:38.803Z,24.73
2023-05-21T07:11:38.793Z,24.71
2023-05-21T07:12:38.787Z,24.65
2023-05-21T07:13:38.781Z,24.76
2023-05-21T07:14:38.759Z,24.79
2023-05-21T07:15:39.042Z,24.79
2023-05-21T07:16:38.774Z,24.79
2023-05-21T07:17:38.748Z,24.71
2023-05-21T07:18:38.722Z,25.12
2023-05-21T07:19:38.727Z,24.64
2023-05-21T07:20:38.698Z,24.70
2023-05-21T07:21:38.716Z,24.64
2023-05-21T07:22:38.674Z,24.68
2023-05-21T07:23:38.682Z,24.68
2023-05-21T07:24:38.678Z,24.76
2023-05-21T07:25:38.772Z,24.69
2023-05-21T07:26:38.651Z,24.78
2023-05-21T07:27:38.634Z,24.65
2023-05-21T07:28:38.613Z,24.56
2023-05-21T07:29:38.605Z,24.70
2023-05-21T07:30:38.596Z,25.10
2023-05-21T07:31:38.618Z,24.62
2023-05-21T07:32:38.592Z,24.14
2023-05-21T07:33:38.562Z,24.86
2023-05-21T07:34:38.551Z,24.78
2023-05-21T07:35:38.797Z,24.68
2023-05-21T07:36:38.532Z,24.57
2023-05-21T07:37:38.592Z,24.81
2023-05-21T07:38:38.516Z,24.72
2023-05-21T07:39:38.501Z,25.12
2023-05-21T07:40:38.573Z,24.70
2023-05-21T07:41:38.487Z,24.76
2023-05-21T07:42:38.468Z,25.07
2023-05-21T07:43:38.459Z,24.80
2023-05-21T07:44:38.456Z,24.85
2023-05-21T07:45:38.647Z,25.02
2023-05-21T07:46:38.474Z,24.94
2023-05-21T07:47:38.479Z,24.64
2023-05-21T07:48:38.408Z,25.04
2023-05-21T07:49:38.406Z,24.72
2023-05-21T07:50:38.389Z,25.15
2023-05-21T07:51:38.385Z,24.89
2023-05-21T07:52:38.421Z,24.76
2023-05-21T07:53:38.360Z,24.80
2023-05-21T07:54:38.349Z,24.68
2023-05-21T07:55:38.675Z,25.04
2023-05-21T07:56:38.349Z,24.77
2023-05-21T07:57:38.319Z,24.73
2023-05-21T07:58:38.313Z,24.77
2023-05-21T07:59:38.359Z,24.64
2023-05-21T08:00:38.288Z,25.10
2023-05-21T08:01:38.279Z,24.65
2023-05-21T08:02:38.306Z,24.77
2023-05-21T08:03:38.442Z,24.70
2023-05-21T08:04:40.893Z,24.76
2023-05-21T08:05:38.488Z,24.70
2023-05-21T08:06:38.238Z,24.79
2023-05-21T08:07:38.218Z,24.70
2023-05-21T08:08:38.209Z,24.62
2023-05-21T08:09:38.316Z,24.54
2023-05-21T08:10:38.193Z,24.68
2023-05-21T08:11:38.189Z,24.73
2023-05-21T08:12:38.193Z,24.76
2023-05-21T08:13:38.160Z,24.71
2023-05-21T08:14:38.154Z,24.70
2023-05-21T08:15:38.360Z,24.70
2023-05-21T08:16:38.170Z,24.71
2023-05-21T08:17:38.132Z,24.79
2023-05-21T08:18:38.105Z,24.84
2023-05-21T08:19:38.152Z,24.54
2023-05-21T08:20:38.094Z,24.72
2023-05-21T08:21:38.074Z,24.76
2023-05-21T08:22:38.068Z,25.14
2023-05-21T08:23:38.057Z,24.85
2023-05-21T08:24:38.048Z,24.70
2023-05-21T08:25:38.261Z,24.70
2023-05-21T08:26:38.028Z,24.93
2023-05-21T08:27:38.030Z,24.64
2023-05-21T08:28:38.030Z,25.04
2023-05-21T08:29:38.092Z,24.65
2023-05-21T08:30:37.986Z,24.61
2023-05-21T08:31:38.028Z,24.77
2023-05-21T08:32:38.006Z,24.71
2023-05-21T08:33:37.956Z,24.77
2023-05-21T08:34:37.946Z,24.62
2023-05-21T08:35:38.137Z,24.64
2023-05-21T08:36:37.923Z,24.81
2023-05-21T08:37:37.921Z,24.71
2023-05-21T08:38:37.916Z,24.72
2023-05-21T08:39:37.892Z,24.68
2023-05-21T08:40:37.880Z,24.71
2023-05-21T08:41:37.879Z,24.89
2023-05-21T08:42:37.901Z,25.15
2023-05-21T08:43:37.876Z,24.70
2023-05-21T08:44:37.861Z,25.04
2023-05-21T08:45:38.630Z,24.59
2023-05-21T08:46:37.825Z,25.12
2023-05-21T08:47:37.846Z,24.70
2023-05-21T08:48:37.796Z,24.61
2023-05-21T08:49:37.803Z,24.72
2023-05-21T08:50:37.776Z,24.65
2023-05-21T08:51:37.768Z,24.72
2023-05-21T08:52:37.755Z,24.62
2023-05-21T08:53:37.754Z,24.92
2023-05-21T08:54:37.749Z,24.69
2023-05-21T08:55:37.932Z,24.80
2023-05-21T08:56:37.714Z,25.10
2023-05-21T08:57:37.707Z,24.93
2023-05-21T08:58:37.733Z,24.69
2023-05-21T08:59:37.683Z,24.71
2023-05-21T09:00:37.690Z,24.72
2023-05-21T09:01:37.708Z,24.69
2023-05-21T09:02:37.678Z,24.78
2023-05-21T09:03:37.744Z,25.05
2023-05-21T09:04:37.734Z,24.65
2023-05-21T09:05:37.784Z,25.17
2023-05-21T09:06:37.612Z,24.95
2023-05-21T09:07:37.607Z,24.69
2023-05-21T09:08:37.588Z,24.76
2023-05-21T09:09:37.586Z,24.73
2023-05-21T09:10:37.569Z,24.54
2023-05-21T09:11:37.561Z,24.72
2023-05-21T09:12:37.549Z,24.68
2023-05-21T09:13:38.937Z,24.69
2023-05-21T09:14:37.528Z,24.05
2023-05-21T09:15:38.072Z,24.73
2023-05-21T09:16:37.578Z,24.88
2023-05-21T09:17:37.551Z,24.76
2023-05-21T09:18:37.488Z,24.77
2023-05-21T09:19:37.698Z,24.89
2023-05-21T09:20:37.471Z,25.00
2023-05-21T09:21:37.459Z,24.80
2023-05-21T09:22:37.449Z,24.65
2023-05-21T09:23:37.443Z,24.84
2023-05-21T09:24:37.442Z,24.64
2023-05-21T09:25:37.689Z,24.78
2023-05-21T09:26:37.413Z,24.71
2023-05-21T09:27:37.407Z,25.05
2023-05-21T09:28:37.389Z,24.89
2023-05-21T09:29:37.380Z,24.73
2023-05-21T09:30:37.560Z,24.62
2023-05-21T09:31:37.379Z,24.71
2023-05-21T09:32:37.430Z,24.84
2023-05-21T09:33:37.378Z,24.73
2023-05-21T09:34:37.331Z,24.72
2023-05-21T09:35:38.274Z,24.69
2023-05-21T09:36:37.316Z,25.14
2023-05-21T09:37:37.299Z,24.68
2023-05-21T09:38:37.294Z,24.69
2023-05-21T09:39:37.279Z,24.70
2023-05-21T09:40:37.541Z,24.62
2023-05-21T09:41:37.263Z,24.72
2023-05-21T09:42:37.247Z,25.02
2023-05-21T09:43:37.238Z,24.86
2023-05-21T09:44:37.232Z,24.70
2023-05-21T09:45:37.435Z,25.19
2023-05-21T09:46:37.271Z,24.68
2023-05-21T09:47:37.283Z,24.79
2023-05-21T09:48:37.345Z,24.76
2023-05-21T09:49:37.180Z,25.14
2023-05-21T09:50:37.355Z,24.88
2023-05-21T09:51:37.217Z,24.59
2023-05-21T09:52:37.146Z,24.62
2023-05-21T09:53:37.143Z,24.72
2023-05-21T09:54:37.126Z,24.86
2023-05-21T09:55:37.119Z,24.73
2023-05-21T09:56:37.106Z,24.87
2023-05-21T09:57:37.096Z,25.14
2023-05-21T09:58:37.086Z,24.78
2023-05-21T09:59:37.113Z,24.62
2023-05-21T10:00:37.229Z,24.69
2023-05-21T10:01:37.103Z,24.84
2023-05-21T10:02:37.078Z,24.72
2023-05-21T10:03:37.037Z,24.70
2023-05-21T10:04:37.071Z,24.78
2023-05-21T10:05:37.020Z,24.77
2023-05-21T10:06:37.008Z,24.72
2023-05-21T10:07:37.003Z,24.70
2023-05-21T10:08:36.994Z,24.70
2023-05-21T10:09:36.986Z,24.81
2023-05-21T10:10:37.159Z,24.76
2023-05-21T10:11:36.964Z,24.69
2023-05-21T10:12:36.948Z,24.62
2023-05-21T10:13:36.943Z,24.62
2023-05-21T10:14:36.948Z,24.68
2023-05-21T10:15:36.920Z,24.76
2023-05-21T10:16:36.943Z,24.69
2023-05-21T10:17:36.920Z,24.71
2023-05-21T10:18:36.888Z,24.70
2023-05-21T10:19:36.878Z,24.71
2023-05-21T10:20:37.286Z,24.65
2023-05-21T10:21:36.860Z,24.73
2023-05-21T10:22:36.852Z,24.76
2023-05-21T10:23:36.838Z,24.77
2023-05-21T10:24:36.830Z,24.59
2023-05-21T10:25:36.818Z,24.54
2023-05-21T10:26:36.829Z,24.73
2023-05-21T10:27:36.808Z,24.78
2023-05-21T10:28:36.786Z,24.71
2023-05-21T10:29:36.784Z,24.76
2023-05-21T10:30:37.157Z,24.78
2023-05-21T10:31:36.758Z,24.73
2023-05-21T10:32:36.811Z,24.81
2023-05-21T10:33:36.807Z,24.72
2023-05-21T10:34:36.729Z,24.62
2023-05-21T10:35:36.908Z,24.73
2023-05-21T10:36:36.721Z,24.69
2023-05-21T10:37:36.697Z,24.68
2023-05-21T10:38:36.684Z,24.77
2023-05-21T10:39:36.718Z,24.72
2023-05-21T10:40:37.112Z,24.68
2023-05-21T10:41:36.656Z,24.89
2023-05-21T10:42:36.647Z,24.73
2023-05-21T10:43:36.642Z,24.77
2023-05-21T10:44:36.640Z,24.80
2023-05-21T10:45:36.742Z,24.71
2023-05-21T10:46:36.606Z,24.76
2023-05-21T10:47:36.639Z,24.86
2023-05-21T10:48:36.584Z,24.79
2023-05-21T10:49:36.575Z,24.70
2023-05-21T10:50:36.701Z,24.77
2023-05-21T10:51:36.584Z,24.85
2023-05-21T10:52:36.576Z,24.72
2023-05-21T10:53:36.542Z,24.59
2023-05-21T10:54:36.540Z,24.73
2023-05-21T10:55:36.533Z,24.69
2023-05-21T10:56:36.507Z,24.68
2023-05-21T10:57:36.500Z,24.70
2023-05-21T10:58:36.494Z,24.77
2023-05-21T10:59:36.491Z,24.95
2023-05-21T11:00:36.663Z,24.79
2023-05-21T11:01:36.512Z,24.64
2023-05-21T11:02:36.550Z,24.61
2023-05-21T11:03:37.656Z,24.69
2023-05-21T11:04:36.428Z,24.72
2023-05-21T11:05:36.424Z,24.72
2023-05-21T11:06:36.417Z,24.68
2023-05-21T11:07:36.399Z,24.62
2023-05-21T11:08:36.461Z,24.69
2023-05-21T11:09:36.398Z,24.73
2023-05-21T11:10:36.724Z,24.70
2023-05-21T11:11:36.365Z,24.79
2023-05-21T11:12:36.366Z,24.69
2023-05-21T11:13:36.350Z,25.12
2023-05-21T11:14:36.394Z,24.84
2023-05-21T11:15:36.325Z,25.10
2023-05-21T11:16:36.345Z,25.12
2023-05-21T11:17:36.330Z,25.09
2023-05-21T11:18:36.289Z,25.10
2023-05-21T11:19:36.319Z,25.25
2023-05-21T11:20:36.481Z,25.22
2023-05-21T11:21:36.259Z,24.73
2023-05-21T11:22:36.252Z,25.17
2023-05-21T11:23:36.241Z,25.10
2023-05-21T11:24:36.345Z,25.20
2023-05-21T11:25:36.231Z,25.12
2023-05-21T11:26:36.214Z,25.63
2023-05-21T11:27:36.207Z,25.05
2023-05-21T11:28:36.190Z,25.38
2023-05-21T11:29:36.178Z,25.07
2023-05-21T11:30:36.948Z,25.12
2023-05-21T11:31:36.203Z,25.14
2023-05-21T11:32:36.265Z,25.10
2023-05-21T11:33:36.140Z,25.12
2023-05-21T11:34:36.132Z,25.38
2023-05-21T11:35:36.121Z,25.19
2023-05-21T11:36:36.235Z,25.10
2023-05-21T11:37:36.136Z,25.02
2023-05-21T11:38:36.092Z,25.12
2023-05-21T11:39:36.081Z,25.09
2023-05-21T11:40:36.378Z,25.04
2023-05-21T11:41:36.061Z,25.01
2023-05-21T11:42:36.055Z,25.15
2023-05-21T11:43:36.041Z,25.10
2023-05-21T11:44:36.032Z,25.19
2023-05-21T11:45:36.021Z,25.04
2023-05-21T11:46:36.047Z,25.67
2023-05-21T11:47:36.018Z,25.14
2023-05-21T11:48:35.992Z,25.04
2023-05-21T11:49:35.997Z,25.05
2023-05-21T11:50:36.204Z,25.22
2023-05-21T11:51:35.965Z,25.54
2023-05-21T11:52:35.965Z,25.12
2023-05-21T11:53:35.942Z,25.28
2023-05-21T11:54:35.944Z,25.04
2023-05-21T11:55:35.924Z,25.14
2023-05-21T11:56:35.933Z,25.17
2023-05-21T11:57:35.908Z,25.12
2023-05-21T11:58:35.899Z,25.20
2023-05-21T11:59:35.879Z,25.51
2023-05-21T12:00:36.012Z,24.71
2023-05-21T12:01:35.863Z,25.27
2023-05-21T12:02:35.888Z,25.09
2023-05-21T12:03:35.948Z,24.97
2023-05-21T12:04:35.836Z,25.12
2023-05-21T12:05:35.837Z,25.10
2023-05-21T12:06:35.823Z,25.17
2023-05-21T12:07:35.805Z,25.22
2023-05-21T12:08:35.795Z,25.12
2023-05-21T12:09:35.785Z,25.02
2023-05-21T12:10:35.954Z,25.04
2023-05-21T12:11:35.763Z,25.30
2023-05-21T12:12:50.600Z,25.04
2023-05-21T12:13:36.774Z,25.09
2023-05-21T12:14:35.737Z,25.15
2023-05-21T12:15:35.722Z,25.54
2023-05-21T12:16:35.768Z,25.19
2023-05-21T12:17:35.716Z,25.20
2023-05-21T12:18:35.694Z,25.00
2023-05-21T12:19:35.691Z,25.27
2023-05-21T12:20:35.917Z,24.97
2023-05-21T12:21:35.663Z,24.95
2023-05-21T12:22:35.657Z,25.10
2023-05-21T12:23:35.641Z,25.20
2023-05-21T12:24:35.653Z,25.19
2023-05-21T12:25:35.624Z,25.12
2023-05-21T12:26:35.627Z,25.05
2023-05-21T12:27:35.603Z,25.19
2023-05-21T12:28:35.620Z,25.30
2023-05-21T12:29:35.585Z,24.94
2023-05-21T12:30:35.880Z,25.10
2023-05-21T12:31:35.607Z,25.07
2023-05-21T12:32:35.571Z,25.14
2023-05-21T12:33:35.589Z,25.05
2023-05-21T12:34:35.534Z,25.04
2023-05-21T12:35:35.563Z,25.10
2023-05-21T12:36:35.512Z,25.02
2023-05-21T12:37:35.517Z,25.04
2023-05-21T12:38:35.497Z,25.15
2023-05-21T12:39:35.485Z,25.04
2023-05-21T12:40:35.648Z,25.20
2023-05-21T12:41:35.465Z,25.15
2023-05-21T12:42:35.516Z,25.19
2023-05-21T12:43:35.454Z,24.64
2023-05-21T12:44:36.932Z,25.12
2023-05-21T12:45:35.424Z,25.12
2023-05-21T12:46:35.641Z,25.15
2023-05-21T12:47:35.507Z,25.07
2023-05-21T12:48:35.416Z,25.25
2023-05-21T12:49:35.381Z,25.05
2023-05-21T12:50:35.663Z,25.05
2023-05-21T12:51:35.364Z,25.01
2023-05-21T12:52:35.373Z,25.09
2023-05-21T12:53:35.424Z,25.19
2023-05-21T12:54:35.347Z,25.12
2023-05-21T12:55:35.336Z,25.14
2023-05-21T12:56:35.316Z,25.05
2023-05-21T12:57:35.303Z,25.22
2023-05-21T12:58:35.295Z,25.12
2023-05-21T12:59:35.284Z,25.12
2023-05-21T13:00:35.629Z,25.05
2023-05-21T13:01:35.280Z,25.17
2023-05-21T13:02:35.297Z,25.10
2023-05-21T13:03:35.263Z,25.45
2023-05-21T13:04:35.288Z,25.07
2023-05-21T13:05:35.243Z,25.10
2023-05-21T13:06:35.214Z,25.00
2023-05-21T13:07:35.203Z,25.25
2023-05-21T13:08:35.215Z,24.97
2023-05-21T13:09:35.183Z,25.17
2023-05-21T13:10:35.434Z,25.27
2023-05-21T13:11:35.161Z,25.12
2023-05-21T13:12:35.161Z,25.17
2023-05-21T13:13:35.153Z,25.12
2023-05-21T13:14:35.141Z,24.96
2023-05-21T13:15:35.156Z,25.20
2023-05-21T13:16:35.145Z,25.12
2023-05-21T13:17:35.134Z,25.15
2023-05-21T13:18:35.093Z,25.12
2023-05-21T13:19:35.169Z,25.27
2023-05-21T13:20:35.317Z,25.07
2023-05-21T13:21:35.063Z,25.15
2023-05-21T13:23:03.933Z,25.22
2023-05-21T13:24:01.553Z,25.10
2023-05-21T13:25:25.488Z,24.70
2023-05-21T13:26:25.475Z,25.05
2023-05-21T13:27:25.467Z,24.97
2023-05-21T13:28:25.455Z,25.07
2023-05-21T13:29:25.477Z,25.17
2023-05-21T13:30:25.477Z,25.30
2023-05-21T13:31:25.425Z,25.20
2023-05-21T13:32:25.527Z,25.28
2023-05-21T13:33:25.521Z,24.97
2023-05-21T13:34:25.396Z,25.22
2023-05-21T13:35:25.382Z,25.56
2023-05-21T13:36:25.373Z,25.25
2023-05-21T13:37:25.373Z,24.94
2023-05-21T13:38:25.354Z,25.12
2023-05-21T13:39:25.450Z,25.22
2023-05-21T13:40:25.341Z,25.19
2023-05-21T13:41:25.386Z,25.22
2023-05-21T13:42:25.326Z,25.15
2023-05-21T13:43:25.307Z,25.15
2023-05-21T13:44:25.297Z,25.19
2023-05-21T13:45:25.287Z,25.09
2023-05-21T13:46:25.295Z,25.09
2023-05-21T13:47:25.282Z,25.10
2023-05-21T13:48:25.271Z,25.31
2023-05-21T13:49:25.258Z,25.12
2023-05-21T13:50:25.237Z,25.70
2023-05-21T13:51:37.995Z,25.12
2023-05-21T13:52:26.249Z,25.14
2023-05-21T13:53:25.214Z,25.15
2023-05-21T13:54:25.196Z,24.95
2023-05-21T13:55:25.190Z,25.14
2023-05-21T13:56:25.184Z,25.12
2023-05-21T13:57:25.167Z,25.17
2023-05-21T13:58:25.155Z,25.01
2023-05-21T13:59:25.233Z,25.09
2023-05-21T14:00:25.138Z,25.10
2023-05-21T14:01:25.160Z,25.12
2023-05-21T14:02:25.224Z,25.12
2023-05-21T14:03:25.155Z,25.10
2023-05-21T14:04:25.119Z,25.14
2023-05-21T14:05:25.086Z,25.07
2023-05-21T14:06:25.073Z,25.17
2023-05-21T14:07:25.082Z,25.04
2023-05-21T14:08:25.057Z,25.05
2023-05-21T14:09:25.068Z,25.25
2023-05-21T14:10:25.039Z,25.04
2023-05-21T14:11:25.025Z,25.14
2023-05-21T14:12:25.014Z,25.20
2023-05-21T14:13:25.011Z,25.01
2023-05-21T14:14:24.991Z,25.63
2023-05-21T14:15:24.984Z,25.28
2023-05-21T14:16:25.115Z,25.19
2023-05-21T14:17:25.022Z,25.04
2023-05-21T14:18:24.957Z,25.12
2023-05-21T14:19:25.053Z,25.09
2023-05-21T14:20:25.027Z,25.44
2023-05-21T14:21:24.939Z,25.12
2023-05-21T14:22:24.918Z,25.22
2023-05-21T14:23:24.912Z,25.23
2023-05-21T14:24:24.900Z,25.15
2023-05-21T14:25:24.885Z,25.07
2023-05-21T14:26:24.875Z,25.05
2023-05-21T14:27:24.864Z,25.25
2023-05-21T14:28:24.859Z,25.10
2023-05-21T14:29:24.844Z,25.05
2023-05-21T14:30:24.835Z,24.95
2023-05-21T14:31:24.958Z,25.09
2023-05-21T14:32:24.893Z,25.20
2023-05-21T14:33:24.805Z,25.12
2023-05-21T14:34:24.806Z,25.22
2023-05-21T14:35:24.798Z,25.25
2023-05-21T14:36:24.799Z,25.12
2023-05-21T14:37:24.784Z,25.17
2023-05-21T14:38:24.757Z,25.12
2023-05-21T14:39:24.756Z,25.09
2023-05-21T14:40:24.739Z,25.14
2023-05-21T14:41:24.728Z,25.12
2023-05-21T14:42:25.347Z,25.68
2023-05-21T14:43:24.713Z,25.12
2023-05-21T14:44:24.701Z,25.25
2023-05-21T14:45:24.694Z,25.07
2023-05-21T14:46:24.845Z,25.12
2023-05-21T14:47:24.692Z,25.12
2023-05-21T14:48:24.650Z,25.17
2023-05-21T14:49:24.644Z,25.05
2023-05-21T14:50:24.630Z,25.19
2023-05-21T14:51:24.625Z,25.14
2023-05-21T14:52:24.629Z,25.10
2023-05-21T14:53:24.600Z,25.20
2023-05-21T14:54:24.595Z,25.14
2023-05-21T14:55:24.587Z,25.07
2023-05-21T14:56:24.569Z,25.02
2023-05-21T14:57:24.575Z,25.10
2023-05-21T14:58:24.548Z,25.14
2023-05-21T14:59:24.548Z,25.15
2023-05-21T15:00:24.528Z,25.07
2023-05-21T15:01:24.539Z,25.14
2023-05-21T15:02:24.621Z,24.96
2023-05-21T15:03:24.588Z,25.04
2023-05-21T15:04:24.483Z,25.00
2023-05-21T15:05:24.480Z,25.10
2023-05-21T15:06:24.468Z,25.10
2023-05-21T15:07:24.459Z,25.12
2023-05-21T15:08:24.472Z,25.12
2023-05-21T15:09:24.444Z,25.17
2023-05-21T15:10:24.428Z,25.14
2023-05-21T15:11:24.423Z,25.22
2023-05-21T15:12:24.409Z,25.14
2023-05-21T15:13:24.396Z,24.79
2023-05-21T15:14:24.389Z,25.22
2023-05-21T15:15:24.380Z,25.12
2023-05-21T15:16:24.423Z,25.55
2023-05-21T15:17:24.385Z,25.45
2023-05-21T15:18:24.346Z,25.47
2023-05-21T15:19:24.359Z,25.47
2023-05-21T15:20:24.325Z,25.27
2023-05-21T15:21:26.517Z,25.09
2023-05-21T15:22:24.312Z,25.54
2023-05-21T15:23:24.306Z,25.15
2023-05-21T15:24:24.326Z,25.68
2023-05-21T15:25:24.284Z,25.70
2023-05-21T15:26:24.270Z,25.54
2023-05-21T15:27:24.262Z,25.44
2023-05-21T15:28:24.254Z,25.51
2023-05-21T15:29:24.247Z,25.47
2023-05-21T15:30:24.241Z,25.62
2023-05-21T15:31:24.228Z,25.51
2023-05-21T15:32:24.214Z,25.48
2023-05-21T15:33:24.205Z,25.65
2023-05-21T15:34:24.275Z,25.62
2023-05-21T15:35:24.318Z,25.62
2023-05-21T15:36:24.176Z,25.09
2023-05-21T15:37:24.174Z,25.54
2023-05-21T15:38:24.162Z,25.45
2023-05-21T15:39:24.146Z,25.47
2023-05-21T15:40:26.746Z,25.78
2023-05-21T15:41:24.135Z,25.48
2023-05-21T15:42:24.120Z,25.60
2023-05-21T15:43:24.107Z,25.68
2023-05-21T15:44:24.102Z,25.51
2023-05-21T15:45:24.093Z,25.62
2023-05-21T15:46:24.154Z,25.59
2023-05-21T15:47:24.141Z,25.38
2023-05-21T15:48:24.065Z,25.65
2023-05-21T15:49:24.062Z,25.76
2023-05-21T15:50:24.051Z,25.38
2023-05-21T15:51:24.037Z,25.44
2023-05-21T15:52:24.023Z,25.51
2023-05-21T15:53:24.016Z,25.55
2023-05-21T15:54:24.009Z,25.52
2023-05-21T15:55:24.094Z,25.73
2023-05-21T15:56:24.014Z,25.55
2023-05-21T15:57:24.017Z,25.45
2023-05-21T15:58:23.970Z,25.46
2023-05-21T15:59:23.964Z,25.09
2023-05-21T16:00:23.950Z,25.59
2023-05-21T16:01:23.969Z,25.46
2023-05-21T16:02:23.970Z,25.52
2023-05-21T16:03:24.054Z,25.12
2023-05-21T16:04:23.922Z,25.60
2023-05-21T16:05:23.899Z,25.39
2023-05-21T16:06:23.907Z,25.46
2023-05-21T16:07:23.900Z,25.53
2023-05-21T16:08:23.876Z,25.19
2023-05-21T16:09:23.869Z,25.52
2023-05-21T16:10:23.868Z,25.53
2023-05-21T16:11:23.847Z,25.52
2023-05-21T16:12:23.865Z,25.39
2023-05-21T16:13:23.830Z,25.46
2023-05-21T16:14:23.824Z,26.17
2023-05-21T16:15:23.808Z,26.19
2023-05-21T16:16:24.739Z,26.13
2023-05-21T16:17:23.866Z,26.03
2023-05-21T16:18:23.776Z,26.13
2023-05-21T16:19:23.799Z,26.12
2023-05-21T16:20:23.758Z,26.02
2023-05-21T16:21:23.747Z,25.98
2023-05-21T16:22:23.747Z,25.68
2023-05-21T16:23:23.727Z,26.14
2023-05-21T16:24:23.721Z,26.03
2023-05-21T16:25:23.709Z,26.10
2023-05-21T16:26:23.699Z,26.03
2023-05-21T16:27:23.690Z,25.47
2023-05-21T16:28:23.703Z,25.94
2023-05-21T16:29:23.666Z,25.92
2023-05-21T16:30:23.663Z,25.97
2023-05-21T16:31:23.658Z,26.12
2023-05-21T16:32:24.142Z,26.04
2023-05-21T16:33:23.631Z,25.53
2023-05-21T16:34:23.621Z,26.05
2023-05-21T16:35:23.607Z,26.10
2023-05-21T16:36:23.603Z,26.02
2023-05-21T16:37:23.588Z,25.63
2023-05-21T16:38:23.581Z,25.59
2023-05-21T16:39:23.569Z,26.04
2023-05-21T16:40:23.561Z,25.56
2023-05-21T16:41:23.546Z,25.44
2023-05-21T16:42:23.539Z,25.39
2023-05-21T16:43:23.532Z,25.59
2023-05-21T16:44:23.544Z,26.19
2023-05-21T16:45:23.504Z,26.14
2023-05-21T16:46:23.513Z,25.56
2023-05-21T16:47:23.540Z,26.18
2023-05-21T16:48:23.475Z,26.20
2023-05-21T16:49:23.472Z,26.04
2023-05-21T16:50:23.465Z,26.02
2023-05-21T16:51:23.446Z,26.13
2023-05-21T16:52:23.438Z,25.60
2023-05-21T16:53:23.428Z,26.22
2023-05-21T16:54:23.416Z,26.11
2023-05-21T16:55:23.401Z,26.10
2023-05-21T16:56:23.396Z,25.94
2023-05-21T16:57:23.391Z,26.10
2023-05-21T16:58:23.379Z,26.21
2023-05-21T16:59:23.361Z,26.14
2023-05-21T17:00:23.375Z,26.17
2023-05-21T17:01:23.370Z,26.12
2023-05-21T17:02:23.389Z,25.98
2023-05-21T17:03:23.421Z,26.06
2023-05-21T17:04:23.308Z,26.14
2023-05-21T17:05:23.300Z,26.14
2023-05-21T17:06:23.295Z,26.09
2023-05-21T17:07:23.294Z,26.43
2023-05-21T17:08:23.270Z,26.14
2023-05-21T17:09:23.272Z,26.09
2023-05-21T17:10:23.250Z,26.13
2023-05-21T17:11:23.240Z,26.18
2023-05-21T17:12:23.231Z,25.97
2023-05-21T17:13:23.577Z,25.54
2023-05-21T17:14:33.286Z,26.18
2023-05-21T17:15:24.230Z,26.09
2023-05-21T17:16:23.227Z,26.25
2023-05-21T17:17:23.176Z,26.09
2023-05-21T17:18:23.175Z,26.55
2023-05-21T17:19:23.195Z,26.17
2023-05-21T17:20:23.155Z,26.19
2023-05-21T17:21:23.136Z,26.11
2023-05-21T17:22:23.140Z,26.02
2023-05-21T17:23:23.184Z,26.10
2023-05-21T17:24:23.112Z,26.03
2023-05-21T17:25:23.100Z,26.03
2023-05-21T17:26:23.107Z,25.94
2023-05-21T17:27:23.087Z,25.94
2023-05-21T17:28:23.074Z,25.39
2023-05-21T17:29:23.081Z,26.02
2023-05-21T17:30:23.051Z,26.12
2023-05-21T17:31:23.136Z,26.10
2023-05-21T17:32:23.060Z,26.13
2023-05-21T17:33:23.019Z,26.20
2023-05-21T17:34:23.030Z,26.05
2023-05-21T17:35:23.000Z,26.17
2023-05-21T17:36:22.992Z,26.13
2023-05-21T17:37:22.981Z,26.29
2023-05-21T17:38:23.030Z,26.12
2023-05-21T17:39:23.047Z,26.11
2023-05-21T17:40:23.029Z,26.02
2023-05-21T17:41:22.931Z,26.10
2023-05-21T17:42:22.931Z,26.06
2023-05-21T17:43:22.909Z,26.05
2023-05-21T17:44:22.905Z,25.87
2023-05-21T17:45:22.890Z,26.14
2023-05-21T17:46:22.929Z,26.12
2023-05-21T17:47:22.909Z,26.12
2023-05-21T17:48:22.948Z,26.13
2023-05-21T17:49:22.850Z,26.10
2023-05-21T17:50:22.839Z,26.12
2023-05-21T17:51:22.826Z,26.06
2023-05-21T17:52:22.816Z,26.11
2023-05-21T17:53:22.805Z,26.06
2023-05-21T17:54:22.808Z,26.02
2023-05-21T17:55:22.988Z,26.00
2023-05-21T17:56:22.772Z,26.04
2023-05-21T17:57:22.766Z,26.05
2023-05-21T17:58:22.758Z,26.12
2023-05-21T17:59:22.744Z,26.06
2023-05-21T18:00:22.737Z,26.05
2023-05-21T18:01:22.846Z,26.20
2023-05-21T18:02:22.724Z,26.13
2023-05-21T18:03:22.705Z,26.12
2023-05-21T18:04:22.778Z,25.79
2023-05-21T18:05:22.685Z,26.12
2023-05-21T18:06:22.676Z,25.89
2023-05-21T18:07:22.659Z,26.06
2023-05-21T18:08:22.656Z,26.11
2023-05-21T18:09:22.643Z,26.11